Conceicao da Barra, Brazil
Current Conditions -  °F | °C
As of 10:00 AM on Thursday 30 Oct 2014 (Local Time) from SBVT Reporting Station
Scattered Clouds Scattered Clouds  
Wind Chill: 79°   Ceiling: Unl
Heat Index: 81°   Visibility: 6mi
Dew Point: 68°   Wind: 14mph
Humidity: 69%   Direction: 10°N
Pressure: 29.97"   Gusts: NA
Location:  18.59°S, 39.73°W
Report Text: SBVT 301200Z 01012KT 9999 SCT030 SCT100 26/20 Q1015
Loading
Personal Weather Stations






























Interactive Weather Map
Tropical Storm Tracking
New forecast layout! Learn more

10-Day Weather Forecast

Advertisements
Track Severe Weather on mobile